Terminal Aerodrome Forecast
Issued by NWS St Louis, MO

Home | Current Version | Previous Version | Text Only | Print | Product List | Glossary On
Versions: 1 2 3 4 5 6 7 8 9 10 11 12 13 14 15 16 17 18 19 20 21 22 23 24 25 26 27 28
000
FTUS43 KLSX 072300
TAFSTL
TAF
KSTL 072337Z 0800/0906 06005KT P6SM VCTS SCT045CB BKN250
     FM080200 20008KT P6SM SCT080
     FM080700 25009KT P6SM VCTS BKN050CB
      TEMPO 0808/0810 VRB20G40KT 1SM +TSRA OVC015CB
     FM081100 VRB04KT 5SM -SHRA VCTS OVC060CB
     FM081200 30008KT P6SM SCT050 BKN120=

USA.gov is the U.S. government's official web portal to all federal, state and local government web resources and services.